createdAt,value
2019-02-20T00:02:05.740Z,101474.80
2019-02-20T00:04:34.145Z,101465.97
2019-02-20T00:07:02.574Z,101477.79
2019-02-20T00:09:31.022Z,101477.79
2019-02-20T00:11:59.460Z,101478.42
2019-02-20T00:14:27.888Z,101480.59
2019-02-20T00:16:56.482Z,101483.48
2019-02-20T00:19:24.930Z,101483.48
2019-02-20T00:21:53.349Z,101482.25
2019-02-20T00:24:21.802Z,101465.11
2019-02-20T00:26:50.233Z,101483.53
2019-02-20T00:29:18.685Z,101483.53
2019-02-20T00:31:47.124Z,101472.86
2019-02-20T00:34:15.547Z,101472.86
2019-02-20T00:36:43.967Z,101479.46
2019-02-20T00:39:12.486Z,101467.96
2019-02-20T00:41:40.975Z,101467.96
2019-02-20T00:44:11.132Z,101473.91
2019-02-20T00:46:41.196Z,101482.62
2019-02-20T00:49:13.939Z,101482.62
2019-02-20T00:51:43.999Z,101491.39
2019-02-20T00:54:12.446Z,101491.39
2019-02-20T00:56:40.874Z,101496.76
2019-02-20T00:59:09.324Z,101496.76
2019-02-20T01:01:37.747Z,101504.73
2019-02-20T01:04:06.365Z,101504.73
2019-02-20T01:06:34.783Z,101508.83
2019-02-20T01:09:03.233Z,101500.45
2019-02-20T01:11:31.652Z,101500.45
2019-02-20T01:14:00.110Z,101495.26
2019-02-20T01:16:28.531Z,101501.02
2019-02-20T01:18:56.975Z,101501.02
2019-02-20T01:21:25.396Z,101492.24
2019-02-20T01:23:53.822Z,101505.84
2019-02-20T01:26:22.329Z,101496.23
2019-02-20T01:28:50.748Z,101496.23
2019-02-20T01:31:19.189Z,101500.59
2019-02-20T01:33:47.622Z,101494.66
2019-02-20T01:36:16.070Z,101492.14
2019-02-20T01:38:44.493Z,101499.96
2019-02-20T01:41:12.943Z,101489.11
2019-02-20T01:43:41.361Z,101489.11
2019-02-20T01:46:09.819Z,101495.17
2019-02-20T01:48:38.239Z,101502.32
2019-02-20T01:51:06.688Z,101514.55
2019-02-20T01:53:35.106Z,101514.55
2019-02-20T01:56:03.566Z,101502.50
2019-02-20T01:58:31.982Z,101502.02
2019-02-20T02:01:02.461Z,101505.07
2019-02-20T02:03:30.882Z,101520.14
2019-02-20T02:05:59.329Z,101526.39
2019-02-20T02:08:27.752Z,101528.75
2019-02-20T02:10:56.199Z,101520.82
2019-02-20T02:13:24.624Z,101532.20
2019-02-20T02:15:53.075Z,101532.20
2019-02-20T02:18:21.502Z,101517.41
2019-02-20T02:20:49.954Z,101517.41
2019-02-20T02:23:20.080Z,101516.18
2019-02-20T02:25:48.707Z,101523.95
2019-02-20T02:28:17.131Z,101514.14
2019-02-20T02:30:45.586Z,101511.60
2019-02-20T02:33:14.014Z,101512.11
2019-02-20T02:35:42.465Z,101520.39
2019-02-20T02:38:10.897Z,101520.39
2019-02-20T02:40:39.352Z,101504.24
2019-02-20T02:43:07.751Z,101514.07
2019-02-20T02:45:36.212Z,101513.27
2019-02-20T02:48:04.638Z,101522.30
2019-02-20T02:50:33.098Z,101515.50
2019-02-20T02:53:01.521Z,101513.12
2019-02-20T02:55:29.981Z,101512.77
2019-02-20T02:57:58.400Z,101507.30
2019-02-20T03:00:26.876Z,101512.42
2019-02-20T03:02:55.354Z,101525.98
2019-02-20T03:05:23.783Z,101507.27
2019-02-20T03:07:52.237Z,101516.34
2019-02-20T03:10:20.659Z,101515.14
2019-02-20T03:12:49.115Z,101515.14
2019-02-20T03:15:17.537Z,101526.66
2019-02-20T03:17:45.984Z,101526.66
2019-02-20T03:20:14.437Z,101529.45
2019-02-20T03:22:42.877Z,101529.25
2019-02-20T03:25:11.287Z,101526.64
2019-02-20T03:27:39.728Z,101524.44
2019-02-20T03:30:09.094Z,101524.44
2019-02-20T03:32:37.544Z,101528.68
2019-02-20T03:35:06.931Z,101533.71
2019-02-20T03:37:35.389Z,101542.86
2019-02-20T03:40:04.853Z,101546.59
2019-02-20T03:42:33.317Z,101542.81
2019-02-20T03:45:01.747Z,101542.81
2019-02-20T03:47:30.196Z,101544.45
2019-02-20T03:49:58.626Z,101544.45
2019-02-20T03:52:27.083Z,101552.30
2019-02-20T03:54:55.503Z,101553.00
2019-02-20T03:57:23.953Z,101553.00
2019-02-20T03:59:52.388Z,101534.67
2019-02-20T04:02:20.842Z,101543.11
2019-02-20T04:04:49.263Z,101534.47
2019-02-20T04:07:17.715Z,101545.78
2019-02-20T04:09:46.133Z,101545.78
2019-02-20T04:12:14.663Z,101535.80
2019-02-20T04:14:43.163Z,101540.56
2019-02-20T04:17:11.599Z,101542.08
2019-02-20T04:19:40.027Z,101549.34
2019-02-20T04:22:08.481Z,101548.48
2019-02-20T04:24:36.909Z,101555.05
2019-02-20T04:27:05.357Z,101557.02
2019-02-20T04:29:33.785Z,101554.81
2019-02-20T04:32:02.239Z,101558.87
2019-02-20T04:34:30.665Z,101544.47
2019-02-20T04:36:59.115Z,101544.47
2019-02-20T04:39:27.549Z,101556.61
2019-02-20T04:41:55.984Z,101556.61
2019-02-20T04:44:24.411Z,101565.02
2019-02-20T04:46:52.834Z,101560.75
2019-02-20T04:49:21.289Z,101560.75
2019-02-20T04:51:49.712Z,101551.08
2019-02-20T04:54:18.176Z,101551.08
2019-02-20T04:56:46.608Z,101566.28
2019-02-20T04:59:15.061Z,101564.77
2019-02-20T05:01:43.485Z,101564.77
2019-02-20T05:04:11.965Z,101580.10
2019-02-20T05:06:40.391Z,101580.10
2019-02-20T05:09:08.834Z,101585.06
2019-02-20T05:11:37.255Z,101585.06
2019-02-20T05:14:05.713Z,101575.97
2019-02-20T05:16:34.138Z,101586.57
2019-02-20T05:19:02.573Z,101586.57
2019-02-20T05:21:31.004Z,101595.20
2019-02-20T05:23:59.460Z,101590.11
2019-02-20T05:26:27.900Z,101590.11
2019-02-20T05:28:56.336Z,101595.67
2019-02-20T05:31:24.773Z,101583.40
2019-02-20T05:33:53.231Z,101590.20
2019-02-20T05:36:21.739Z,101582.89
2019-02-20T05:38:50.198Z,101584.62
2019-02-20T05:41:18.641Z,101589.70
2019-02-20T05:43:47.083Z,101584.59
2019-02-20T05:46:15.505Z,101584.59
2019-02-20T05:48:43.960Z,101578.69
2019-02-20T05:51:12.372Z,101573.81
2019-02-20T05:53:40.831Z,101590.75
2019-02-20T05:56:09.254Z,101594.52
2019-02-20T05:58:37.717Z,101595.36
2019-02-20T06:01:06.136Z,101595.36
2019-02-20T06:03:34.593Z,101596.84
2019-02-20T06:06:03.052Z,101589.72
2019-02-20T06:08:31.479Z,101589.72
2019-02-20T06:10:59.910Z,101593.37
2019-02-20T06:13:28.369Z,101597.67
2019-02-20T06:15:56.799Z,101604.69
2019-02-20T06:18:25.248Z,101604.69
2019-02-20T06:20:53.685Z,101605.82
2019-02-20T06:23:22.132Z,101604.58
2019-02-20T06:25:50.567Z,101607.28
2019-02-20T06:28:18.989Z,101620.70
2019-02-20T06:30:47.445Z,101620.70
2019-02-20T06:33:15.877Z,101617.15
2019-02-20T06:35:44.326Z,101618.16
2019-02-20T06:38:12.768Z,101632.81
2019-02-20T06:40:41.218Z,101635.62
2019-02-20T06:43:09.646Z,101635.62
2019-02-20T06:45:38.103Z,101638.33
2019-02-20T06:48:06.536Z,101637.98
2019-02-20T06:50:34.982Z,101637.98
2019-02-20T06:53:03.407Z,101644.38
2019-02-20T06:55:31.941Z,101642.06
2019-02-20T06:58:00.358Z,101642.06
2019-02-20T07:00:28.814Z,101648.69
2019-02-20T07:02:57.240Z,101653.52
2019-02-20T07:05:36.343Z,101653.52
2019-02-20T07:08:25.404Z,101646.58
2019-02-20T07:11:13.643Z,101656.31
2019-02-20T07:13:51.376Z,101653.27
2019-02-20T07:16:41.950Z,101653.27
2019-02-20T07:19:47.877Z,101670.28
2019-02-20T07:22:22.333Z,101672.36
2019-02-20T07:25:02.857Z,101684.27
2019-02-20T07:27:35.520Z,101684.27
2019-02-20T07:30:06.687Z,101688.07
2019-02-20T07:32:35.109Z,101693.78
2019-02-20T07:35:03.828Z,101693.78
2019-02-20T07:37:32.261Z,101695.14
2019-02-20T07:40:00.706Z,101686.45
2019-02-20T07:42:29.125Z,101679.68
2019-02-20T07:44:57.586Z,101685.65
2019-02-20T07:47:26.014Z,101690.05
2019-02-20T07:49:54.477Z,101698.13
2019-02-20T07:52:22.900Z,101705.80
2019-02-20T07:54:51.333Z,101708.63
2019-02-20T07:57:19.790Z,101717.34
2019-02-20T07:59:48.209Z,101708.91
2019-02-20T08:02:16.661Z,101715.21
2019-02-20T08:04:45.089Z,101717.11
2019-02-20T08:07:13.550Z,101720.03
2019-02-20T08:09:41.968Z,101726.47
2019-02-20T08:12:10.485Z,101726.47
2019-02-20T08:14:38.914Z,101714.91
2019-02-20T08:17:07.524Z,101723.45
2019-02-20T08:19:35.942Z,101723.93
2019-02-20T08:22:04.469Z,101723.38
2019-02-20T08:24:32.909Z,101733.59
2019-02-20T08:27:01.341Z,101733.59
2019-02-20T08:29:29.803Z,101744.69
2019-02-20T08:31:58.303Z,101751.34
2019-02-20T08:34:26.742Z,101742.28
2019-02-20T08:36:55.267Z,101751.03
2019-02-20T08:39:23.691Z,101750.55
2019-02-20T08:41:52.141Z,101749.73
2019-02-20T08:44:20.571Z,101755.67
2019-02-20T08:46:49.025Z,101755.67
2019-02-20T08:49:17.444Z,101763.48
2019-02-20T08:51:45.898Z,101776.68
2019-02-20T08:54:14.320Z,101776.68
2019-02-20T08:56:42.784Z,101775.86
2019-02-20T08:59:11.213Z,101776.80
2019-02-20T09:01:39.674Z,101789.45
2019-02-20T09:04:08.101Z,101784.53
2019-02-20T09:06:36.554Z,101787.25
2019-02-20T09:09:05.855Z,101796.16
2019-02-20T09:11:34.275Z,101793.72
2019-02-20T09:14:02.731Z,101804.86
2019-02-20T09:16:31.161Z,101802.75
2019-02-20T09:18:59.621Z,101797.41
2019-02-20T09:21:28.056Z,101797.09
2019-02-20T09:23:56.520Z,101796.27
2019-02-20T09:26:24.938Z,101790.70
2019-02-20T09:28:53.395Z,101798.20
2019-02-20T09:31:21.823Z,101790.45
2019-02-20T09:33:50.274Z,101796.63
2019-02-20T09:36:18.693Z,101798.38
2019-02-20T09:38:47.149Z,101796.50
2019-02-20T09:41:15.563Z,101796.68
2019-02-20T09:43:44.959Z,101799.22
2019-02-20T09:46:13.385Z,101803.44
2019-02-20T09:48:41.833Z,101804.92
2019-02-20T09:51:10.251Z,101818.00
2019-02-20T09:53:38.709Z,101814.64
2019-02-20T09:56:07.136Z,101816.53
2019-02-20T09:58:35.585Z,101818.09
2019-02-20T10:01:04.004Z,101819.69
2019-02-20T10:03:32.466Z,101818.37
2019-02-20T10:06:00.886Z,101831.14
2019-02-20T10:08:29.336Z,101827.23
2019-02-20T10:10:57.777Z,101827.39
2019-02-20T10:13:26.196Z,101826.57
2019-02-20T10:15:54.644Z,101830.11
2019-02-20T10:18:23.079Z,101832.17
2019-02-20T10:20:51.529Z,101835.05
2019-02-20T10:23:19.963Z,101825.70
2019-02-20T10:25:48.407Z,101831.14
2019-02-20T10:28:16.836Z,101830.14
2019-02-20T10:30:45.298Z,101830.30
2019-02-20T10:33:13.729Z,101833.53
2019-02-20T10:35:42.187Z,101830.47
2019-02-20T10:38:10.620Z,101829.10
2019-02-20T10:40:39.077Z,101836.28
2019-02-20T10:43:07.577Z,101835.91
2019-02-20T10:45:36.033Z,101839.67
2019-02-20T10:48:04.455Z,101836.60
2019-02-20T10:50:32.911Z,101834.06
2019-02-20T10:53:01.346Z,101835.75
2019-02-20T10:55:29.795Z,101836.26
2019-02-20T10:57:58.216Z,101833.02
2019-02-20T11:00:28.384Z,101837.30
2019-02-20T11:02:56.804Z,101837.30
2019-02-20T11:05:25.329Z,101842.40
2019-02-20T11:07:53.744Z,101844.27
2019-02-20T11:10:24.034Z,101843.59
2019-02-20T11:12:52.723Z,101848.86
2019-02-20T11:15:21.185Z,101841.02
2019-02-20T11:17:49.609Z,101853.09
2019-02-20T11:20:18.078Z,101856.84
2019-02-20T11:22:46.561Z,101854.63
2019-02-20T11:25:15.007Z,101847.07
2019-02-20T11:27:43.507Z,101855.59
2019-02-20T11:30:17.862Z,101854.39
2019-02-20T11:32:46.282Z,101857.48
2019-02-20T11:35:14.732Z,101850.31
2019-02-20T11:37:43.147Z,101867.20
2019-02-20T11:40:11.673Z,101856.92
2019-02-20T11:42:40.097Z,101852.81
2019-02-20T11:45:11.403Z,101856.90
2019-02-20T11:47:39.824Z,101855.88
2019-02-20T11:50:10.087Z,101845.62
2019-02-20T11:52:38.788Z,101853.33
2019-02-20T11:55:14.864Z,101851.95
2019-02-20T11:57:43.462Z,101850.95
2019-02-20T12:00:14.469Z,101847.71
2019-02-20T12:02:42.991Z,101848.23
2019-02-20T12:05:11.488Z,101854.52
2019-02-20T12:07:40.008Z,101854.16
2019-02-20T12:10:12.601Z,101853.33
2019-02-20T12:12:40.922Z,101846.83
2019-02-20T12:15:09.499Z,101839.66
2019-02-20T12:17:38.015Z,101848.88
2019-02-20T12:20:10.418Z,101847.19
2019-02-20T12:22:38.896Z,101856.40
2019-02-20T12:25:09.052Z,101853.48
2019-02-20T12:27:37.580Z,101848.87
2019-02-20T12:30:11.138Z,101845.98
2019-02-20T12:32:39.672Z,101847.16
2019-02-20T12:35:09.662Z,101844.42
2019-02-20T12:37:38.170Z,101842.02
2019-02-20T12:40:09.022Z,101844.03
2019-02-20T12:42:37.479Z,101836.66
2019-02-20T12:45:09.874Z,101841.47
2019-02-20T12:47:38.331Z,101841.11
2019-02-20T12:50:09.602Z,101842.31
2019-02-20T12:52:38.086Z,101837.73
2019-02-20T12:55:07.740Z,101846.59
2019-02-20T12:57:36.269Z,101838.67
2019-02-20T13:00:08.110Z,101836.77
2019-02-20T13:02:36.573Z,101835.56
2019-02-20T13:05:06.612Z,101835.02
2019-02-20T13:07:35.083Z,101834.69
2019-02-20T13:10:03.511Z,101837.45
2019-02-20T13:12:32.035Z,101834.50
2019-02-20T13:15:00.467Z,101834.17
2019-02-20T13:17:28.924Z,101833.54
2019-02-20T13:19:57.367Z,101839.38
2019-02-20T13:22:25.824Z,101838.01
2019-02-20T13:24:54.256Z,101838.20
2019-02-20T13:27:23.215Z,101834.79
2019-02-20T13:29:51.724Z,101834.59
2019-02-20T13:32:20.183Z,101828.08
2019-02-20T13:34:48.693Z,101835.62
2019-02-20T13:37:17.158Z,101841.41
2019-02-20T13:39:45.573Z,101837.02
2019-02-20T13:42:14.102Z,101841.98
2019-02-20T13:44:42.538Z,101835.16
2019-02-20T13:47:10.990Z,101845.22
2019-02-20T13:49:39.416Z,101843.81
2019-02-20T13:52:07.940Z,101852.66
2019-02-20T13:54:36.393Z,101839.61
2019-02-20T13:57:05.851Z,101836.03
2019-02-20T13:59:34.565Z,101831.91
2019-02-20T14:02:03.000Z,101838.95
2019-02-20T14:04:31.466Z,101842.37
2019-02-20T14:06:59.930Z,101831.83
2019-02-20T14:09:28.432Z,101839.36
2019-02-20T14:11:56.925Z,101832.17
2019-02-20T14:14:25.374Z,101827.02
2019-02-20T14:16:54.078Z,101823.05
2019-02-20T14:19:22.533Z,101829.99
2019-02-20T14:21:50.967Z,101832.83
2019-02-20T14:24:19.417Z,101833.05
2019-02-20T14:26:47.846Z,101837.77
2019-02-20T14:29:16.304Z,101836.32
2019-02-20T14:31:44.736Z,101838.77
2019-02-20T14:34:13.475Z,101842.34
2019-02-20T14:36:41.968Z,101843.98
2019-02-20T14:39:10.747Z,101842.00
2019-02-20T14:41:39.167Z,101843.40
2019-02-20T14:44:07.624Z,101839.66
2019-02-20T14:46:36.367Z,101843.95
2019-02-20T14:49:05.169Z,101845.41
2019-02-20T14:51:33.632Z,101838.11
2019-02-20T14:54:02.094Z,101845.45
2019-02-20T14:56:30.597Z,101847.50
2019-02-20T14:58:59.056Z,101841.38
2019-02-20T15:01:27.483Z,101853.38
2019-02-20T15:03:55.935Z,101850.98
2019-02-20T15:06:24.748Z,101862.81
2019-02-20T15:08:53.197Z,101862.65
2019-02-20T15:11:21.616Z,101860.82
2019-02-20T15:13:50.141Z,101860.00
2019-02-20T15:16:18.565Z,101864.45
2019-02-20T15:18:47.013Z,101867.53
2019-02-20T15:21:15.442Z,101866.38
2019-02-20T15:23:44.343Z,101862.64
2019-02-20T15:26:12.843Z,101861.14
2019-02-20T15:28:41.301Z,101867.43
2019-02-20T15:31:09.727Z,101873.92
2019-02-20T15:33:38.195Z,101878.83
2019-02-20T15:36:06.681Z,101883.09
2019-02-20T15:38:35.136Z,101879.16
2019-02-20T15:41:03.846Z,101881.22
2019-02-20T15:43:32.273Z,101889.91
2019-02-20T15:46:00.723Z,101887.37
2019-02-20T15:48:29.150Z,101887.37
2019-02-20T15:50:57.644Z,101889.20
2019-02-20T15:53:26.103Z,101892.45
2019-02-20T15:55:54.558Z,101890.57
2019-02-20T15:58:23.063Z,101893.81
2019-02-20T16:00:51.516Z,101891.41
2019-02-20T16:03:20.005Z,101898.20
2019-02-20T16:05:48.502Z,101897.16
2019-02-20T16:08:16.972Z,101907.86
2019-02-20T16:10:45.423Z,101904.05
2019-02-20T16:13:13.847Z,101906.56
2019-02-20T16:15:42.303Z,101912.19
2019-02-20T16:18:10.723Z,101918.47
2019-02-20T16:20:39.180Z,101917.11
2019-02-20T16:23:07.607Z,101918.26
2019-02-20T16:25:36.063Z,101913.65
2019-02-20T16:28:04.495Z,101908.86
2019-02-20T16:30:33.388Z,101915.48
2019-02-20T16:33:01.827Z,101919.05
2019-02-20T16:35:30.347Z,101913.59
2019-02-20T16:37:58.767Z,101917.15
2019-02-20T16:40:27.222Z,101923.23
2019-02-20T16:42:55.642Z,101923.34
2019-02-20T16:45:25.134Z,101922.33
2019-02-20T16:47:54.112Z,101922.57
2019-02-20T16:50:22.623Z,101928.28
2019-02-20T16:52:51.044Z,101931.26
2019-02-20T16:55:19.864Z,101933.58
2019-02-20T16:57:56.255Z,101930.94
2019-02-20T17:00:20.658Z,101928.13
2019-02-20T17:02:49.425Z,101932.72
2019-02-20T17:05:17.874Z,101939.38
2019-02-20T17:07:46.367Z,101945.80
2019-02-20T17:10:16.624Z,101944.77
2019-02-20T17:12:45.119Z,101949.53
2019-02-20T17:15:17.818Z,101949.20
2019-02-20T17:17:46.315Z,101950.16
2019-02-20T17:20:17.866Z,101955.43
2019-02-20T17:22:46.617Z,101953.03
2019-02-20T17:25:15.377Z,101954.54
2019-02-20T17:27:43.804Z,101959.64
2019-02-20T17:30:14.611Z,101961.55
2019-02-20T17:32:43.026Z,101962.23
2019-02-20T17:35:11.717Z,101966.48
2019-02-20T17:37:40.247Z,101967.55
2019-02-20T17:40:10.314Z,101967.20
2019-02-20T17:42:38.834Z,101975.84
2019-02-20T17:45:10.662Z,101976.02
2019-02-20T17:47:39.108Z,101977.55
2019-02-20T17:50:12.928Z,101977.06
2019-02-20T17:52:41.384Z,101977.20
2019-02-20T17:55:10.641Z,101972.29
2019-02-20T17:57:39.091Z,101974.00
2019-02-20T18:00:13.000Z,101979.80
2019-02-20T18:02:41.523Z,101980.16
2019-02-20T18:05:10.005Z,101981.39
2019-02-20T18:07:38.466Z,101981.89
2019-02-20T18:10:08.726Z,101988.52
2019-02-20T18:12:37.249Z,101986.78
2019-02-20T18:15:08.777Z,101988.77
2019-02-20T18:17:37.231Z,101989.86
2019-02-20T18:20:10.458Z,101995.34
2019-02-20T18:22:38.992Z,101987.26
2019-02-20T18:25:11.660Z,101987.97
2019-02-20T18:27:40.120Z,101993.58
2019-02-20T18:30:15.946Z,101994.23
2019-02-20T18:32:44.474Z,101999.56
2019-02-20T18:35:15.594Z,102001.45
2019-02-20T18:37:44.060Z,102009.42
2019-02-20T18:40:15.388Z,102003.47
2019-02-20T18:42:43.966Z,102002.81
2019-02-20T18:45:14.145Z,102008.42
2019-02-20T18:47:42.667Z,102008.12
2019-02-20T18:50:13.389Z,102007.79
2019-02-20T18:52:41.837Z,102007.59
2019-02-20T18:55:13.987Z,102012.23
2019-02-20T18:57:42.414Z,102014.42
2019-02-20T19:00:16.555Z,102011.19
2019-02-20T19:02:45.001Z,102011.45
2019-02-20T19:05:13.675Z,102015.70
2019-02-20T19:07:42.116Z,102015.38
2019-02-20T19:10:13.936Z,102017.83
2019-02-20T19:12:48.385Z,102016.08
2019-02-20T19:15:22.678Z,102003.83
2019-02-20T19:18:03.202Z,102016.23
2019-02-20T19:20:37.628Z,102017.08
2019-02-20T19:23:25.722Z,102007.87
2019-02-20T19:26:19.365Z,102013.33
2019-02-20T19:29:06.120Z,102010.63
2019-02-20T19:31:43.322Z,102005.36
2019-02-20T19:34:40.274Z,102012.19
2019-02-20T19:37:23.180Z,102010.30
2019-02-20T19:40:03.443Z,102012.36
2019-02-20T19:43:10.013Z,102013.08
2019-02-20T19:46:05.431Z,102010.89
2019-02-20T19:48:42.713Z,102008.62
2019-02-20T19:51:38.037Z,102015.76
2019-02-20T19:54:41.913Z,102008.59
2019-02-20T19:57:19.028Z,102012.68
2019-02-20T19:59:55.987Z,102014.69
2019-02-20T20:02:51.788Z,102017.61
2019-02-20T20:05:39.675Z,102020.36
2019-02-20T20:08:19.487Z,102014.91
2019-02-20T20:11:20.132Z,102011.31
2019-02-20T20:14:13.145Z,102021.87
2019-02-20T20:17:04.261Z,102023.92
2019-02-20T20:19:53.887Z,102018.88
2019-02-20T20:22:28.329Z,102019.46
2019-02-20T20:25:05.631Z,102018.99
2019-02-20T20:27:42.928Z,102024.95
2019-02-20T20:30:20.080Z,102021.72
2019-02-20T20:33:00.502Z,102024.22
2019-02-20T20:35:50.081Z,102014.04
2019-02-20T20:38:39.508Z,102017.61
2019-02-20T20:41:29.351Z,102007.55
2019-02-20T20:44:03.539Z,102006.36
2019-02-20T20:46:38.092Z,102013.17
2019-02-20T20:49:09.822Z,102009.94
2019-02-20T20:51:56.569Z,102007.73
2019-02-20T20:54:28.196Z,102009.94
2019-02-20T20:57:08.595Z,102006.14
2019-02-20T20:59:49.030Z,102004.92
2019-02-20T21:02:20.957Z,102001.55
2019-02-20T21:05:09.134Z,102002.58
2019-02-20T21:07:46.532Z,102001.55
2019-02-20T21:10:26.955Z,101996.94
2019-02-20T21:13:16.680Z,101999.97
2019-02-20T21:16:06.022Z,101995.55
2019-02-20T21:18:49.499Z,101990.42
2019-02-20T21:21:27.124Z,101985.34
2019-02-20T21:24:17.161Z,101990.78
2019-02-20T21:27:06.856Z,101985.85
2019-02-20T21:29:47.414Z,101989.06
2019-02-20T21:32:41.872Z,101987.72
2019-02-20T21:35:28.425Z,101985.85
2019-02-20T21:38:18.122Z,101991.45
2019-02-20T21:40:58.500Z,101989.71
2019-02-20T21:43:35.685Z,101997.02
2019-02-20T21:46:23.999Z,101996.37
2019-02-20T21:49:04.371Z,101990.94
2019-02-20T21:51:38.560Z,101988.35
2019-02-20T21:54:30.734Z,101991.95
2019-02-20T21:57:14.454Z,101993.88
2019-02-20T21:59:48.719Z,102001.69
2019-02-20T22:02:22.243Z,102003.95
2019-02-20T22:04:59.845Z,101999.34
2019-02-20T22:07:46.721Z,102000.50
2019-02-20T22:10:34.858Z,102004.56
2019-02-20T22:13:24.833Z,102000.45
2019-02-20T22:16:11.292Z,101998.49
2019-02-20T22:18:54.532Z,101993.19
2019-02-20T22:21:42.734Z,101996.95
2019-02-20T22:24:20.036Z,101995.09
2019-02-20T22:27:12.562Z,101996.33
2019-02-20T22:29:55.867Z,101997.67
2019-02-20T22:32:27.495Z,101988.45
2019-02-20T22:35:10.407Z,101980.80
2019-02-20T22:37:54.276Z,101983.98
2019-02-20T22:40:48.345Z,101982.16
2019-02-20T22:43:41.034Z,101978.22
2019-02-20T22:46:18.395Z,101976.86
2019-02-20T22:49:09.767Z,101977.59
2019-02-20T22:51:49.687Z,101982.23
2019-02-20T22:54:42.803Z,101978.99
2019-02-20T22:57:30.694Z,101983.92
2019-02-20T23:00:37.457Z,101984.77
2019-02-20T23:03:11.979Z,101984.12
2019-02-20T23:05:43.582Z,101980.55
2019-02-20T23:08:23.822Z,101984.97
2019-02-20T23:11:18.349Z,101983.61
2019-02-20T23:13:55.746Z,101987.52
2019-02-20T23:16:24.165Z,101983.48
2019-02-20T23:18:52.627Z,101979.92
2019-02-20T23:21:21.048Z,101981.72
2019-02-20T23:23:49.510Z,101983.92
2019-02-20T23:26:17.939Z,101988.03
2019-02-20T23:28:46.393Z,101983.08
2019-02-20T23:31:14.821Z,101985.28
2019-02-20T23:33:43.308Z,101992.95
2019-02-20T23:36:11.704Z,101993.31
2019-02-20T23:38:40.162Z,101991.92
2019-02-20T23:41:08.587Z,101989.39
2019-02-20T23:43:37.104Z,101985.83
2019-02-20T23:46:05.600Z,101986.84
2019-02-20T23:48:34.056Z,101993.45
2019-02-20T23:51:02.475Z,101990.56
2019-02-20T23:53:34.853Z,101991.45
2019-02-20T23:56:06.808Z,101990.29
2019-02-20T23:58:38.097Z,101985.97
